Time;durP1;ratioP1;P1;durP2;ratioP2;P2;SDS_P1;SDS_P2;PMS_P1;PMS_P2;Temp;Humidity;BMP_temperature;BMP_pressure;BME280_temperature;BME280_humidity;BME280_pressure;Samples;Min_cycle;Max_cycle;Signal;HPM_P1;HPM_P2
2022/12/22 03:28:19;;;;;;;59.43;23.53;;;8.60;99.90;;;;;;4942542;28;19933;-87
2022/12/22 03:30:45;;;;;;;65.43;24.50;;;8.60;99.90;;;;;;4972762;28;20286;-87
2022/12/22 03:33:11;;;;;;;62.47;24.52;;;8.60;99.90;;;;;;4971343;28;20058;-88
2022/12/22 03:35:36;;;;;;;64.70;23.67;;;8.60;99.90;;;;;;4954610;28;20525;-87
2022/12/22 03:38:02;;;;;;;74.55;26.50;;;8.60;99.90;;;;;;4971979;28;20043;-89
2022/12/22 03:40:32;;;;;;;75.60;26.60;;;8.60;99.90;;;;;;4954578;28;20047;-87
2022/12/22 03:48:29;;;;;;;69.93;25.15;;;8.60;99.90;;;;;;4941177;28;20028;-88
2022/12/22 03:50:58;;;;;;;69.72;25.13;;;8.60;99.90;;;;;;4954573;28;20466;-88
2022/12/22 03:53:23;;;;;;;70.35;24.23;;;8.60;99.90;;;;;;4938516;28;20078;-88
2022/12/22 03:55:49;;;;;;;77.13;25.90;;;8.60;99.90;;;;;;4981079;28;20097;-88
2022/12/22 03:58:17;;;;;;;70.43;25.70;;;8.60;99.90;;;;;;4991735;28;20061;-88
2022/12/22 04:00:43;;;;;;;78.60;25.95;;;8.70;99.90;;;;;;4976186;28;20100;-88
2022/12/22 04:03:09;;;;;;;81.57;25.67;;;8.60;99.90;;;;;;4988164;28;20058;-88
2022/12/22 04:05:36;;;;;;;87.55;26.88;;;8.70;99.90;;;;;;5000715;28;20065;-88
2022/12/22 04:08:08;;;;;;;93.85;27.73;;;8.60;99.90;;;;;;4994630;28;20054;-88
2022/12/22 04:13:18;;;;;;;79.70;27.42;;;8.60;99.90;;;;;;4994446;28;20052;-88
2022/12/22 04:15:44;;;;;;;86.95;26.83;;;8.60;99.90;;;;;;5009660;28;20046;-88
2022/12/22 04:18:11;;;;;;;94.25;26.05;;;8.60;99.90;;;;;;4991644;28;20046;-88
2022/12/22 04:20:37;;;;;;;90.28;27.33;;;8.70;99.90;;;;;;5005981;28;20054;-88
2022/12/22 04:23:03;;;;;;;89.22;27.92;;;8.60;99.90;;;;;;5007433;28;20073;-87
2022/12/22 04:25:29;;;;;;;82.28;26.85;;;8.60;99.90;;;;;;4974697;28;20062;-87
2022/12/22 04:28:02;;;;;;;101.20;26.40;;;8.60;99.90;;;;;;4991285;28;20061;-88
2022/12/22 04:30:29;;;;;;;99.50;27.95;;;8.60;99.90;;;;;;5007191;28;20084;-88
2022/12/22 04:33:00;;;;;;;74.97;27.27;;;8.60;99.90;;;;;;4991998;28;20061;-86
2022/12/22 04:35:27;;;;;;;86.10;26.50;;;8.60;99.90;;;;;;5006618;28;20077;-88
2022/12/22 04:37:54;;;;;;;97.35;26.88;;;8.60;99.90;;;;;;5006427;28;20055;-87
2022/12/22 04:40:20;;;;;;;94.15;26.38;;;8.60;99.90;;;;;;5002787;28;20050;-87
2022/12/22 04:42:45;;;;;;;94.05;27.27;;;8.60;99.90;;;;;;4980910;28;20046;-87
2022/12/22 04:45:12;;;;;;;78.90;26.05;;;8.60;99.90;;;;;;4978193;28;20110;-87
2022/12/22 04:47:38;;;;;;;99.10;27.63;;;8.60;99.90;;;;;;4996476;28;20082;-87
2022/12/22 04:50:11;;;;;;;85.28;28.10;;;8.60;99.90;;;;;;4963718;28;20051;-87
2022/12/22 04:52:37;;;;;;;96.85;27.08;;;8.60;99.90;;;;;;4996883;28;20053;-87
2022/12/22 04:55:05;;;;;;;110.95;28.02;;;8.60;99.90;;;;;;4961230;28;20054;-87
2022/12/22 04:57:31;;;;;;;95.25;26.70;;;8.60;99.90;;;;;;4995729;28;20065;-87
2022/12/22 04:59:58;;;;;;;118.22;29.08;;;8.60;99.90;;;;;;4995887;28;20046;-87
2022/12/22 05:02:26;;;;;;;133.95;29.02;;;8.60;99.90;;;;;;4994390;28;20140;-87
2022/12/22 05:04:52;;;;;;;99.20;26.48;;;8.60;99.90;;;;;;4978655;28;20068;-87
2022/12/22 05:07:24;;;;;;;148.80;29.75;;;8.60;99.90;;;;;;4961252;28;20617;-87
2022/12/22 05:09:59;;;;;;;120.53;28.40;;;8.60;99.90;;;;;;4978982;28;20458;-87
2022/12/22 05:15:09;;;;;;;138.57;29.02;;;8.60;99.90;;;;;;4963797;28;20077;-87
2022/12/22 05:17:36;;;;;;;139.55;28.55;;;8.60;99.90;;;;;;4975380;28;20066;-87
2022/12/22 05:20:04;;;;;;;100.32;25.38;;;8.60;99.90;;;;;;4975579;28;20066;-87
2022/12/22 05:22:29;;;;;;;92.65;25.25;;;8.60;99.90;;;;;;4974834;28;20057;-87
2022/12/22 05:25:00;;;;;;;93.60;22.95;;;8.60;99.90;;;;;;4991593;28;20046;-87
2022/12/22 05:27:28;;;;;;;106.60;24.17;;;8.60;99.90;;;;;;4991280;28;20395;-87
2022/12/22 05:29:54;;;;;;;106.65;23.58;;;8.70;99.90;;;;;;4973843;28;20060;-87
2022/12/22 05:32:20;;;;;;;102.38;23.75;;;8.60;99.90;;;;;;4960460;28;20047;-87
2022/12/22 05:34:47;;;;;;;94.13;24.80;;;8.60;99.90;;;;;;4977391;28;20093;-87
2022/12/22 05:37:12;;;;;;;102.00;24.75;;;8.60;99.90;;;;;;4994812;28;20046;-87
2022/12/22 05:39:39;;;;;;;94.45;23.52;;;8.60;99.90;;;;;;4994660;28;20046;-87
2022/12/22 05:42:08;;;;;;;95.82;25.02;;;8.70;99.90;;;;;;4990258;28;20540;-87
2022/12/22 05:44:34;;;;;;;106.65;26.83;;;8.60;99.90;;;;;;4976005;28;20062;-87
2022/12/22 05:47:00;;;;;;;95.63;26.05;;;8.60;99.90;;;;;;4976077;28;20090;-87
2022/12/22 05:49:26;;;;;;;97.93;25.83;;;8.60;99.90;;;;;;4993139;28;20753;-87
2022/12/22 05:51:54;;;;;;;97.93;25.33;;;8.60;99.90;;;;;;4993037;28;20062;-87
2022/12/22 05:54:29;;;;;;;129.98;27.67;;;8.60;99.90;;;;;;4976766;28;20062;-88
2022/12/22 05:56:55;;;;;;;150.40;28.02;;;8.60;99.90;;;;;;4993467;28;20062;-87
2022/12/22 05:59:32;;;;;;;145.30;27.20;;;8.60;99.90;;;;;;4992863;28;20117;-88
2022/12/22 06:01:58;;;;;;;137.77;27.73;;;8.60;99.90;;;;;;4978034;28;20494;-87
2022/12/22 06:04:25;;;;;;;132.98;28.33;;;8.60;99.90;;;;;;5004930;28;20114;-88
2022/12/22 06:06:51;;;;;;;116.60;26.40;;;8.60;99.90;;;;;;4960174;28;20501;-88
2022/12/22 06:09:16;;;;;;;145.45;27.73;;;8.50;99.90;;;;;;4959605;28;20062;-87
2022/12/22 06:11:42;;;;;;;125.20;26.75;;;8.50;99.90;;;;;;4975614;28;20042;-87
2022/12/22 06:14:08;;;;;;;133.23;28.67;;;8.50;99.90;;;;;;4958975;28;20365;-88
2022/12/22 06:16:36;;;;;;;124.00;27.45;;;8.50;99.90;;;;;;4975341;28;20063;-88
2022/12/22 06:19:02;;;;;;;141.43;27.85;;;8.40;99.90;;;;;;4960549;28;20117;-88
2022/12/22 06:21:34;;;;;;;122.68;26.63;;;8.40;99.90;;;;;;4980747;28;20105;-88
2022/12/22 06:24:00;;;;;;;113.10;26.10;;;8.40;99.90;;;;;;5012227;28;20050;-86
2022/12/22 06:26:26;;;;;;;116.28;27.63;;;8.40;99.90;;;;;;5000447;28;20094;-88
2022/12/22 06:28:52;;;;;;;101.40;24.70;;;8.30;99.90;;;;;;4997356;28;20061;-87
2022/12/22 06:31:19;;;;;;;102.53;26.23;;;8.30;99.90;;;;;;4993779;28;20062;-89
2022/12/22 06:33:44;;;;;;;107.88;26.02;;;8.30;99.90;;;;;;4975847;28;20073;-87
2022/12/22 06:36:10;;;;;;;114.82;27.30;;;8.30;99.90;;;;;;4992724;28;20073;-87
2022/12/22 06:38:39;;;;;;;112.00;28.35;;;8.30;99.90;;;;;;4993509;28;20057;-87
2022/12/22 06:41:13;;;;;;;108.20;25.63;;;8.20;99.90;;;;;;4992466;28;20102;-87
2022/12/22 06:43:38;;;;;;;89.90;24.23;;;8.20;99.90;;;;;;4991648;28;20113;-87
2022/12/22 06:46:04;;;;;;;97.03;24.23;;;8.30;99.90;;;;;;5009255;28;20050;-87
2022/12/22 06:48:31;;;;;;;88.03;22.95;;;8.20;99.90;;;;;;4991859;28;20050;-86
2022/12/22 06:51:03;;;;;;;87.47;23.33;;;8.20;99.90;;;;;;4991377;28;20072;-85
2022/12/22 06:53:29;;;;;;;89.05;22.40;;;8.10;99.90;;;;;;4991044;28;20046;-87
2022/12/22 06:55:54;;;;;;;85.80;22.95;;;8.00;99.90;;;;;;4990890;28;20084;-87
2022/12/22 06:58:25;;;;;;;95.15;22.58;;;8.00;99.90;;;;;;5005556;28;20457;-87
2022/12/22 07:01:02;;;;;;;95.63;22.17;;;8.00;99.90;;;;;;4969168;28;20137;-87
2022/12/22 07:03:29;;;;;;;93.28;22.77;;;7.80;99.90;;;;;;4998860;28;20050;-87
2022/12/22 07:05:55;;;;;;;86.57;21.77;;;7.80;99.90;;;;;;4998660;28;20054;-86
2022/12/22 07:08:21;;;;;;;86.95;22.45;;;7.70;99.90;;;;;;4981827;28;20046;-87
2022/12/22 07:10:58;;;;;;;93.47;22.90;;;7.70;99.90;;;;;;4997220;28;20050;-87
2022/12/22 07:13:32;;;;;;;94.65;21.73;;;7.60;99.90;;;;;;4996261;28;20061;-86
2022/12/22 07:16:02;;;;;;;111.95;22.00;;;7.50;99.90;;;;;;4973411;28;20080;-87
2022/12/22 07:18:29;;;;;;;100.38;22.60;;;7.40;99.90;;;;;;4990207;28;20057;-86
2022/12/22 07:20:54;;;;;;;108.95;22.73;;;7.40;99.90;;;;;;4989924;28;20061;-87
2022/12/22 07:23:20;;;;;;;87.63;21.45;;;7.30;99.90;;;;;;4974283;28;20046;-87
2022/12/22 07:25:46;;;;;;;90.20;21.48;;;7.20;99.90;;;;;;4974280;28;20058;-87
2022/12/22 07:28:11;;;;;;;89.32;22.40;;;7.10;99.90;;;;;;4973894;28;20162;-87
2022/12/22 07:30:37;;;;;;;96.85;21.17;;;7.10;99.90;;;;;;4957546;28;20093;-87
2022/12/22 07:33:03;;;;;;;104.88;22.00;;;7.00;99.90;;;;;;4957997;28;20092;-87
2022/12/22 07:35:29;;;;;;;100.00;23.30;;;7.00;99.90;;;;;;4957863;28;20078;-86
2022/12/22 07:37:54;;;;;;;106.15;23.42;;;6.90;99.90;;;;;;4991240;28;20104;-86
2022/12/22 07:40:20;;;;;;;114.45;25.65;;;6.90;99.90;;;;;;4989948;28;20077;-87
2022/12/22 07:42:46;;;;;;;130.13;27.98;;;6.80;99.90;;;;;;4957875;28;20050;-87
2022/12/22 07:45:16;;;;;;;103.28;24.92;;;6.70;99.90;;;;;;4989242;28;20062;-87
2022/12/22 07:47:42;;;;;;;105.05;23.42;;;6.70;99.90;;;;;;4957493;28;20054;-87
2022/12/22 07:50:24;;;;;;;121.32;26.60;;;6.80;99.90;;;;;;4957486;28;20085;-87
2022/12/22 07:52:51;;;;;;;97.50;24.88;;;6.90;99.90;;;;;;4959064;28;20094;-87
2022/12/22 07:55:17;;;;;;;121.47;27.48;;;7.00;99.90;;;;;;4956637;28;20062;-87
2022/12/22 07:57:43;;;;;;;129.30;28.00;;;7.10;99.90;;;;;;4958002;28;20062;-87
2022/12/22 08:00:10;;;;;;;131.80;26.73;;;7.20;99.90;;;;;;4989756;28;20050;-86
2022/12/22 08:02:35;;;;;;;122.90;26.80;;;7.20;99.90;;;;;;4973548;28;20085;-86
2022/12/22 08:05:01;;;;;;;113.40;24.63;;;7.20;99.90;;;;;;4973995;28;20490;-86
2022/12/22 08:07:26;;;;;;;96.72;22.67;;;7.20;99.90;;;;;;4993014;28;20054;-88
2022/12/22 08:09:52;;;;;;;106.57;23.58;;;7.30;99.90;;;;;;4979349;28;20054;-87
2022/12/22 08:12:18;;;;;;;108.38;22.40;;;7.20;99.90;;;;;;4973265;28;20112;-86
2022/12/22 08:14:44;;;;;;;88.57;22.77;;;7.20;99.90;;;;;;4972236;28;20057;-87
2022/12/22 08:17:13;;;;;;;91.28;21.38;;;7.20;99.90;;;;;;4957555;28;20065;-87
2022/12/22 08:19:39;;;;;;;82.53;20.48;;;7.10;99.90;;;;;;4972957;28;20050;-86
2022/12/22 08:22:05;;;;;;;84.32;20.23;;;7.00;99.90;;;;;;4956914;28;20054;-87
2022/12/22 08:24:30;;;;;;;81.50;20.58;;;7.00;99.90;;;;;;4956548;28;20065;-88
2022/12/22 08:27:02;;;;;;;89.07;20.85;;;7.00;99.90;;;;;;4940732;28;20058;-86
2022/12/22 08:29:32;;;;;;;85.13;20.08;;;7.00;99.90;;;;;;4941456;28;20120;-88
2022/12/22 08:31:59;;;;;;;87.35;20.08;;;7.00;99.90;;;;;;4972857;28;20094;-87
2022/12/22 08:34:24;;;;;;;82.55;20.15;;;7.10;99.90;;;;;;4956623;28;20163;-88
2022/12/22 08:36:52;;;;;;;86.75;19.95;;;7.10;99.90;;;;;;4957466;28;20542;-86
2022/12/22 08:39:18;;;;;;;85.05;19.25;;;7.20;99.90;;;;;;4956773;28;20391;-87
2022/12/22 08:41:50;;;;;;;87.13;20.05;;;7.20;99.90;;;;;;4956833;28;20113;-87
2022/12/22 08:44:17;;;;;;;80.38;17.83;;;7.30;99.90;;;;;;4989677;28;20125;-87
2022/12/22 08:46:43;;;;;;;77.90;18.67;;;7.30;99.90;;;;;;4989344;28;20050;-90
2022/12/22 08:49:09;;;;;;;78.55;18.73;;;7.30;99.90;;;;;;4989480;28;20053;-90
2022/12/22 08:51:37;;;;;;;79.80;17.70;;;7.30;99.90;;;;;;4990738;28;20050;-89
2022/12/22 08:54:03;;;;;;;79.28;18.50;;;7.90;99.90;;;;;;4989004;28;20061;-89
2022/12/22 08:56:30;;;;;;;83.22;18.17;;;7.30;99.90;;;;;;4969086;28;20063;-92
2022/12/22 08:58:56;;;;;;;72.18;17.63;;;7.30;99.90;;;;;;4954480;28;20054;-92
2022/12/22 09:01:21;;;;;;;80.22;18.88;;;7.30;99.90;;;;;;4938860;28;20120;-92
2022/12/22 09:03:49;;;;;;;76.25;18.85;;;7.30;99.90;;;;;;4942107;28;20050;-89
2022/12/22 09:06:14;;;;;;;70.43;19.10;;;7.30;99.90;;;;;;4955388;28;20046;-90
2022/12/22 09:08:40;;;;;;;64.35;16.90;;;7.30;99.90;;;;;;4957013;28;20054;-89
2022/12/22 09:11:06;;;;;;;63.88;18.05;;;7.30;99.90;;;;;;4957008;28;20050;-86
2022/12/22 09:13:31;;;;;;;76.03;19.83;;;7.20;99.90;;;;;;4974640;28;20123;-87
2022/12/22 09:15:57;;;;;;;69.50;17.52;;;7.10;99.90;;;;;;4940541;28;20050;-89
2022/12/22 09:18:23;;;;;;;59.33;15.70;;;7.10;99.90;;;;;;4942286;28;20057;-88
2022/12/22 09:20:54;;;;;;;73.35;16.60;;;7.10;99.90;;;;;;4941661;28;20118;-90
2022/12/22 09:23:20;;;;;;;68.40;18.00;;;7.00;99.90;;;;;;4942153;28;20802;-89
2022/12/22 09:25:46;;;;;;;65.50;16.98;;;7.00;99.90;;;;;;4956665;28;20166;-88
2022/12/22 09:28:12;;;;;;;74.32;18.40;;;8.20;99.90;;;;;;4941103;28;20443;-87
2022/12/22 09:30:37;;;;;;;72.85;17.48;;;6.90;99.90;;;;;;4974143;28;20050;-88
2022/12/22 09:33:03;;;;;;;55.13;16.13;;;7.00;99.90;;;;;;4956868;28;20694;-89
2022/12/22 09:35:29;;;;;;;60.03;16.13;;;6.90;99.90;;;;;;4925354;28;20051;-90
2022/12/22 09:37:55;;;;;;;55.85;16.17;;;6.90;99.90;;;;;;4972615;28;20466;-88
2022/12/22 09:40:21;;;;;;;58.80;15.93;;;6.90;99.90;;;;;;4940821;28;20087;-87
2022/12/22 09:42:47;;;;;;;61.70;15.52;;;7.00;99.90;;;;;;4940716;28;20090;-87
2022/12/22 09:45:18;;;;;;;63.40;16.35;;;7.00;99.90;;;;;;4972156;28;20059;-89
2022/12/22 09:47:45;;;;;;;61.35;15.95;;;7.00;99.90;;;;;;4942000;28;20050;-88
2022/12/22 09:50:14;;;;;;;57.63;14.85;;;6.90;99.90;;;;;;4957173;28;20054;-87
2022/12/22 09:52:46;;;;;;;48.40;13.65;;;6.90;99.90;;;;;;4940549;28;20050;-91
2022/12/22 09:55:22;;;;;;;48.42;14.05;;;7.00;99.90;;;;;;4925357;28;20070;-90
2022/12/22 09:57:48;;;;;;;49.38;13.77;;;6.90;99.90;;;;;;4940908;28;20479;-87
2022/12/22 10:00:15;;;;;;;50.67;14.63;;;6.90;99.90;;;;;;4972004;28;20059;-90
2022/12/22 10:03:13;;;;;;;47.28;13.23;;;6.80;99.90;;;;;;4956631;28;20113;-90
2022/12/22 10:05:44;;;;;;;41.58;12.70;;;6.80;99.90;;;;;;4957116;28;20125;-89
2022/12/22 10:08:11;;;;;;;40.65;11.23;;;6.80;99.90;;;;;;4957995;28;20047;-91
2022/12/22 10:10:37;;;;;;;39.22;11.68;;;6.70;99.90;;;;;;4958151;28;20055;-87
2022/12/22 10:13:03;;;;;;;33.70;10.88;;;6.70;99.90;;;;;;4946751;28;20065;-87
2022/12/22 10:15:37;;;;;;;26.45;10.73;;;6.70;99.90;;;;;;4941843;28;20053;-87
2022/12/22 10:18:15;;;;;;;29.80;11.52;;;6.70;99.90;;;;;;4955525;28;20054;-87
2022/12/22 10:20:43;;;;;;;32.00;10.65;;;6.60;99.90;;;;;;4972523;28;20102;-85
2022/12/22 10:23:19;;;;;;;21.63;9.38;;;6.50;99.90;;;;;;4972077;28;20054;-86
2022/12/22 10:25:57;;;;;;;26.67;9.10;;;6.60;99.90;;;;;;4956225;28;20073;-87
2022/12/22 10:28:25;;;;;;;26.17;10.15;;;6.70;99.90;;;;;;4956842;28;20065;-87
2022/12/22 10:31:17;;;;;;;30.25;10.25;;;6.60;99.90;;;;;;4942546;28;20109;-88
2022/12/22 10:33:43;;;;;;;31.73;10.00;;;6.70;99.90;;;;;;4973512;28;20342;-88
2022/12/22 10:36:09;;;;;;;25.00;10.57;;;6.80;99.90;;;;;;4973349;28;20081;-87
2022/12/22 10:39:04;;;;;;;25.10;9.90;;;6.90;99.90;;;;;;4972928;28;20046;-87
2022/12/22 10:41:40;;;;;;;29.85;9.90;;;6.90;99.90;;;;;;4956480;28;20470;-87
2022/12/22 10:44:12;;;;;;;25.38;10.00;;;7.10;99.90;;;;;;4924268;28;20066;-88
2022/12/22 10:46:47;;;;;;;34.83;11.57;;;7.10;99.90;;;;;;4955690;28;20128;-87
2022/12/22 10:49:21;;;;;;;32.35;11.38;;;7.20;99.90;;;;;;4955470;28;20234;-88
2022/12/22 10:51:52;;;;;;;31.60;11.07;;;7.30;99.90;;;;;;4940540;28;20073;-87
2022/12/22 10:54:34;;;;;;;28.13;11.25;;;7.40;99.90;;;;;;4939913;28;20059;-87
2022/12/22 10:57:05;;;;;;;30.58;10.75;;;7.40;99.90;;;;;;4941312;28;20058;-88
2022/12/22 10:59:31;;;;;;;27.50;11.48;;;7.40;99.90;;;;;;4990994;28;20777;-88
2022/12/22 11:02:19;;;;;;;33.78;11.15;;;7.40;99.90;;;;;;4974537;28;20062;-89
2022/12/22 11:04:45;;;;;;;28.73;11.63;;;7.40;99.90;;;;;;4974627;28;20050;-88
2022/12/22 11:07:11;;;;;;;31.85;11.40;;;7.40;99.90;;;;;;4943290;28;20504;-88
2022/12/22 11:09:37;;;;;;;32.03;11.13;;;7.50;99.90;;;;;;4992591;28;20062;-88
2022/12/22 11:12:25;;;;;;;33.33;12.35;;;7.50;99.90;;;;;;4975252;28;20053;-88
2022/12/22 11:15:28;;;;;;;28.98;11.27;;;7.50;99.90;;;;;;4960359;28;20058;-89
2022/12/22 11:17:53;;;;;;;31.02;11.70;;;7.60;99.90;;;;;;4991208;28;20050;-87
2022/12/22 11:20:25;;;;;;;34.28;11.27;;;7.60;99.90;;;;;;4974904;28;20474;-88
2022/12/22 11:23:12;;;;;;;29.60;10.52;;;7.60;99.90;;;;;;4975470;28;20050;-89
2022/12/22 11:25:58;;;;;;;26.88;10.57;;;7.70;99.90;;;;;;4955326;28;20086;-88
2022/12/22 11:28:42;;;;;;;33.25;11.32;;;7.70;99.90;;;;;;4957009;28;20046;-89
2022/12/22 11:31:30;;;;;;;26.63;11.80;;;7.70;99.90;;;;;;4940687;28;20065;-89
2022/12/22 11:34:27;;;;;;;25.38;9.75;;;7.60;99.90;;;;;;4940313;28;20153;-87
2022/12/22 11:37:21;;;;;;;24.55;10.27;;;7.60;99.90;;;;;;4971947;28;20057;-88
2022/12/22 11:40:12;;;;;;;25.27;11.13;;;7.70;99.90;;;;;;4972088;28;20059;-87
2022/12/22 11:43:01;;;;;;;24.05;10.23;;;7.60;99.90;;;;;;4972270;28;20062;-88
2022/12/22 11:45:43;;;;;;;24.05;10.05;;;7.60;99.90;;;;;;4944394;28;20050;-88
2022/12/22 11:48:33;;;;;;;25.15;10.40;;;7.60;99.90;;;;;;4978210;28;20495;-88
2022/12/22 11:51:12;;;;;;;27.58;10.93;;;7.60;99.90;;;;;;4933098;28;20059;-87
2022/12/22 11:53:37;;;;;;;22.20;10.13;;;7.50;99.90;;;;;;4946032;28;20058;-89
2022/12/22 11:56:22;;;;;;;25.05;10.25;;;7.60;99.90;;;;;;4976028;28;20065;-88
2022/12/22 11:59:12;;;;;;;25.02;10.15;;;7.70;99.90;;;;;;4943697;28;20075;-89
2022/12/22 12:01:59;;;;;;;27.85;9.75;;;7.70;99.90;;;;;;4940860;28;20696;-87
2022/12/22 12:04:36;;;;;;;21.92;9.82;;;7.80;99.90;;;;;;4970679;28;20051;-88
2022/12/22 12:07:10;;;;;;;22.75;10.13;;;7.80;99.90;;;;;;4955372;28;20058;-86
2022/12/22 12:10:00;;;;;;;20.65;9.88;;;7.80;99.90;;;;;;4939560;28;20047;-87
2022/12/22 12:12:36;;;;;;;23.13;9.68;;;7.80;99.90;;;;;;4939472;28;20066;-87
2022/12/22 12:15:15;;;;;;;19.75;9.15;;;7.80;99.90;;;;;;4959929;28;20593;-87
2022/12/22 12:18:00;;;;;;;22.65;9.27;;;7.90;99.90;;;;;;4948340;28;20059;-87
2022/12/22 12:20:37;;;;;;;18.60;8.95;;;7.90;99.90;;;;;;4948704;28;20046;-88
2022/12/22 12:23:27;;;;;;;21.05;9.05;;;7.90;99.90;;;;;;4962400;28;20055;-86
2022/12/22 12:26:02;;;;;;;22.15;9.35;;;7.90;99.90;;;;;;4911425;28;20058;-87
2022/12/22 12:28:46;;;;;;;19.02;8.90;;;7.80;99.90;;;;;;4958355;28;20059;-86
2022/12/22 12:31:12;;;;;;;16.67;8.57;;;7.70;99.90;;;;;;4957216;28;20088;-90
2022/12/22 12:33:52;;;;;;;16.23;8.50;;;7.70;99.90;;;;;;4939900;28;20129;-87
2022/12/22 12:36:41;;;;;;;20.65;9.45;;;7.70;99.90;;;;;;4940946;28;20057;-87
2022/12/22 12:39:19;;;;;;;21.08;8.57;;;7.60;99.90;;;;;;4956211;28;20146;-88
2022/12/22 12:42:03;;;;;;;17.23;8.45;;;7.60;99.90;;;;;;4971783;28;20201;-88
2022/12/22 12:44:31;;;;;;;16.08;8.13;;;7.70;99.90;;;;;;4970290;28;20125;-87
2022/12/22 12:47:20;;;;;;;18.67;9.32;;;7.70;99.90;;;;;;4938001;28;20067;-86
2022/12/22 12:49:56;;;;;;;16.90;8.65;;;7.70;99.90;;;;;;4939516;28;20046;-91
2022/12/22 12:52:42;;;;;;;16.52;9.02;;;7.70;99.90;;;;;;4954471;28;20101;-90
2022/12/22 12:55:30;;;;;;;20.63;9.43;;;7.70;99.90;;;;;;4966205;28;20063;-89
2022/12/22 12:57:56;;;;;;;17.17;8.60;;;7.80;99.90;;;;;;4934872;29;20514;-89
2022/12/22 13:00:31;;;;;;;17.27;8.55;;;7.90;99.90;;;;;;4918987;29;20051;-92
2022/12/22 13:02:57;;;;;;;17.95;8.52;;;8.00;99.90;;;;;;4951356;29;20178;-89
2022/12/22 13:05:35;;;;;;;17.80;7.85;;;8.00;99.90;;;;;;4952520;29;20134;-92
2022/12/22 13:08:09;;;;;;;14.77;7.43;;;8.20;99.90;;;;;;4891474;29;20083;-91
2022/12/22 13:10:51;;;;;;;18.75;7.88;;;8.20;99.90;;;;;;4903432;29;20053;-88
2022/12/22 13:13:26;;;;;;;19.52;7.85;;;8.20;99.90;;;;;;4945918;29;20043;-87
2022/12/22 13:16:01;;;;;;;15.95;8.07;;;8.30;99.90;;;;;;4960998;28;20046;-88
2022/12/22 13:18:29;;;;;;;17.55;7.38;;;8.30;99.90;;;;;;4935104;29;20214;-89
2022/12/22 13:21:04;;;;;;;21.42;8.57;;;8.30;99.90;;;;;;4950442;29;20066;-88
2022/12/22 13:23:41;;;;;;;18.52;9.73;;;8.30;99.90;;;;;;4919440;29;20062;-89
2022/12/22 13:26:12;;;;;;;16.33;7.93;;;8.30;99.90;;;;;;4918746;29;20472;-89
2022/12/22 13:28:39;;;;;;;22.00;8.80;;;8.30;99.90;;;;;;4918796;29;20059;-90
2022/12/22 13:31:13;;;;;;;17.95;7.97;;;8.30;99.90;;;;;;4934909;29;20062;-89
2022/12/22 13:33:39;;;;;;;17.23;8.50;;;8.40;99.90;;;;;;4935406;29;20078;-88
2022/12/22 13:36:05;;;;;;;18.10;8.15;;;8.30;99.90;;;;;;4903003;29;20315;-89
2022/12/22 13:38:33;;;;;;;13.95;7.43;;;8.30;99.90;;;;;;4904636;29;20114;-90
2022/12/22 13:40:59;;;;;;;16.15;7.95;;;8.30;99.90;;;;;;4927301;29;20035;-90
2022/12/22 13:43:26;;;;;;;14.57;7.20;;;8.30;99.90;;;;;;4943451;29;20027;-91
2022/12/22 13:45:55;;;;;;;12.95;6.53;;;8.40;99.90;;;;;;4903299;29;20065;-92
2022/12/22 13:48:29;;;;;;;15.98;7.82;;;8.40;99.90;;;;;;4903614;29;20138;-91
2022/12/22 13:50:59;;;;;;;18.60;8.65;;;8.30;99.90;;;;;;4919941;29;20066;-92
2022/12/22 13:53:33;;;;;;;14.43;7.78;;;8.30;99.90;;;;;;4921365;29;20511;-90
2022/12/22 13:55:59;;;;;;;14.93;7.50;;;8.40;99.90;;;;;;4913459;29;20059;-92
2022/12/22 13:58:29;;;;;;;18.77;7.75;;;8.50;99.90;;;;;;4922201;29;20043;-88
2022/12/22 14:01:10;;;;;;;15.82;7.70;;;8.50;99.90;;;;;;4937619;29;20090;-91
2022/12/22 14:03:38;;;;;;;21.02;7.65;;;8.60;99.90;;;;;;4938036;29;20488;-92
2022/12/22 14:06:32;;;;;;;17.73;7.13;;;8.60;99.90;;;;;;4937765;29;20043;-92
2022/12/22 14:09:26;;;;;;;16.95;6.72;;;8.60;99.90;;;;;;4956623;29;20503;-94
2022/12/22 14:12:00;;;;;;;19.33;7.30;;;8.60;99.90;;;;;;4973730;28;20109;-90
2022/12/22 14:14:39;;;;;;;14.50;6.70;;;8.60;99.90;;;;;;4947977;29;20106;-92
2022/12/22 14:17:16;;;;;;;15.07;6.32;;;8.70;99.90;;;;;;4949954;29;20059;-91
2022/12/22 14:19:42;;;;;;;13.88;5.97;;;8.70;99.90;;;;;;4927983;29;20067;-91
2022/12/22 14:22:10;;;;;;;12.63;5.00;;;8.70;99.90;;;;;;4943353;29;20109;-92
2022/12/22 14:24:44;;;;;;;13.40;4.95;;;8.70;99.90;;;;;;4958174;29;20066;-92
2022/12/22 14:27:16;;;;;;;10.20;4.38;;;8.50;99.90;;;;;;4925396;29;20055;-92
2022/12/22 14:29:42;;;;;;;6.57;3.60;;;8.50;99.90;;;;;;4923314;29;20057;-92
2022/12/22 14:32:08;;;;;;;12.18;4.22;;;8.50;99.90;;;;;;4939595;29;20051;-93
2022/12/22 14:34:33;;;;;;;11.30;3.90;;;8.40;99.90;;;;;;4923703;29;20051;-93
2022/12/22 14:37:00;;;;;;;12.52;3.60;;;8.40;99.90;;;;;;4955849;29;20046;-95
2022/12/22 14:39:29;;;;;;;12.55;4.07;;;8.40;99.90;;;;;;4958619;28;20447;-96
2022/12/22 14:42:02;;;;;;;9.05;4.05;;;8.30;99.90;;;;;;4945873;29;20110;-89
2022/12/22 14:44:40;;;;;;;8.25;3.95;;;8.30;99.90;;;;;;4929357;29;20055;-94
2022/12/22 14:47:16;;;;;;;11.38;4.10;;;8.30;99.90;;;;;;4924128;29;20091;-95
2022/12/22 14:49:51;;;;;;;13.35;4.15;;;8.30;99.90;;;;;;4957121;29;20058;-94
2022/12/22 14:52:34;;;;;;;11.50;4.70;;;8.20;99.90;;;;;;4958394;29;20575;-96
2022/12/22 14:55:01;;;;;;;12.23;4.68;;;8.20;99.90;;;;;;4929970;28;20055;-94
2022/12/22 14:57:40;;;;;;;9.05;4.65;;;8.20;99.90;;;;;;4932296;28;20066;-91
2022/12/22 15:00:08;;;;;;;9.85;4.40;;;8.20;99.90;;;;;;4958848;28;20061;-92
2022/12/22 15:02:36;;;;;;;13.95;5.07;;;8.20;99.90;;;;;;4959506;28;20061;-90
2022/12/22 15:05:36;;;;;;;11.57;4.22;;;8.10;99.90;;;;;;4958344;28;20133;-89
2022/12/22 15:08:03;;;;;;;8.00;3.72;;;8.10;99.90;;;;;;4934256;28;20406;-90
2022/12/22 15:10:37;;;;;;;11.50;4.57;;;8.10;99.90;;;;;;4958767;28;20089;-88
2022/12/22 15:13:04;;;;;;;11.05;4.53;;;8.10;99.90;;;;;;4974601;28;20116;-90
2022/12/22 15:15:30;;;;;;;10.55;4.63;;;8.00;99.90;;;;;;4957954;28;20053;-87
2022/12/22 15:17:56;;;;;;;13.15;5.28;;;8.10;99.90;;;;;;4959269;28;20149;-93
2022/12/22 15:20:24;;;;;;;9.57;5.00;;;8.00;99.90;;;;;;4958972;28;20197;-93
2022/12/22 15:22:50;;;;;;;14.40;6.00;;;8.00;99.90;;;;;;4959243;28;20136;-93
2022/12/22 15:25:18;;;;;;;16.20;5.82;;;8.00;99.90;;;;;;4975150;28;20485;-91
2022/12/22 15:27:44;;;;;;;12.30;6.60;;;8.00;99.90;;;;;;4942723;28;20069;-92
2022/12/22 15:30:11;;;;;;;13.52;5.75;;;8.00;99.90;;;;;;4958627;28;20054;-92
2022/12/22 15:32:37;;;;;;;10.80;5.63;;;8.00;99.90;;;;;;4958576;28;20058;-92
2022/12/22 15:35:04;;;;;;;16.02;7.15;;;8.00;99.90;;;;;;4942317;28;20055;-90
2022/12/22 15:37:30;;;;;;;10.32;5.88;;;8.00;99.90;;;;;;4958777;28;20053;-92
2022/12/22 15:39:55;;;;;;;17.65;6.53;;;8.00;99.90;;;;;;4995458;28;20050;-93
2022/12/22 15:42:21;;;;;;;13.25;7.38;;;8.00;99.90;;;;;;4959495;28;20590;-90
2022/12/22 15:44:47;;;;;;;14.20;6.32;;;8.00;99.90;;;;;;4973486;28;20379;-89
2022/12/22 15:47:12;;;;;;;10.25;6.13;;;7.90;99.90;;;;;;4991379;28;20065;-85
2022/12/22 15:49:38;;;;;;;13.02;6.57;;;7.90;99.90;;;;;;4990365;28;20042;-91
2022/12/22 15:52:04;;;;;;;13.73;6.55;;;7.90;99.90;;;;;;4958006;28;20054;-88
2022/12/22 15:54:31;;;;;;;16.08;7.05;;;7.90;99.90;;;;;;4960401;28;20082;-89
2022/12/22 15:56:59;;;;;;;15.25;7.10;;;7.80;99.90;;;;;;4975233;28;20063;-90
2022/12/22 15:59:26;;;;;;;14.60;6.68;;;7.80;99.90;;;;;;4959033;28;20054;-92
2022/12/22 16:01:58;;;;;;;14.02;7.20;;;7.80;99.90;;;;;;4990492;28;20512;-91
2022/12/22 16:04:24;;;;;;;16.50;7.68;;;7.80;99.90;;;;;;4958944;28;20713;-91
2022/12/22 16:06:50;;;;;;;16.80;7.25;;;7.90;99.90;;;;;;4958834;28;20062;-89
2022/12/22 16:09:24;;;;;;;15.13;8.32;;;7.90;99.90;;;;;;4942471;28;20054;-90
2022/12/22 16:11:49;;;;;;;16.90;8.65;;;7.80;99.90;;;;;;4957632;28;20118;-88
2022/12/22 16:14:15;;;;;;;16.63;8.65;;;7.80;99.90;;;;;;4956160;28;20726;-89
2022/12/22 16:16:41;;;;;;;15.65;9.43;;;7.90;99.90;;;;;;4972158;28;20109;-91
2022/12/22 16:19:17;;;;;;;16.35;9.10;;;7.80;99.90;;;;;;4957422;28;20066;-89
2022/12/22 16:21:44;;;;;;;15.15;8.30;;;8.20;99.90;;;;;;4957236;28;20078;-90
2022/12/22 16:24:39;;;;;;;22.90;9.90;;;7.90;99.90;;;;;;4989553;28;20129;-89
2022/12/22 16:27:05;;;;;;;19.25;9.77;;;7.90;99.90;;;;;;4964739;28;20303;-90
2022/12/22 16:29:31;;;;;;;28.00;14.30;;;7.90;99.90;;;;;;4972947;28;20046;-89
2022/12/22 16:32:14;;;;;;;16.95;9.52;;;7.90;99.90;;;;;;4989919;28;20054;-89
2022/12/22 16:34:40;;;;;;;16.00;10.02;;;7.90;99.90;;;;;;4989684;28;20756;-89